Time;durP1;ratioP1;P1;durP2;ratioP2;P2;SDS_P1;SDS_P2;PMS_P1;PMS_P2;Temp;Humidity;BMP_temperature;BMP_pressure;BME280_temperature;BME280_humidity;BME280_pressure;Samples;Min_cycle;Max_cycle;Signal;HPM_P1;HPM_P2
2021/11/28 00:02:22;;;;;;;;;;;;;;;;;;5020992;28;19921;-80
2021/11/28 00:04:48;;;;;;;;;;;;;;;;;;5017765;28;19960;-80
2021/11/28 00:10:04;;;;;;;;;;;;;;;;;;5019385;28;19914;-80
2021/11/28 00:15:03;;;;;;;;;;;;;;;;;;5020720;28;19922;-79
2021/11/28 00:17:29;;;;;;;;;;;;;;;;;;5024731;28;20258;-79
2021/11/28 00:19:55;;;;;;;;;;;;;;;;;;5023257;28;20067;-81
2021/11/28 00:22:21;;;;;;;;;;;;;;;;;;5020993;28;19983;-80
2021/11/28 00:24:47;;;;;;;;;;;;;;;;;;5014631;28;19918;-79
2021/11/28 00:27:13;;;;;;;;;;;;;;;;;;5016805;28;20369;-80
2021/11/28 00:29:39;;;;;;;;;;;;;;;;;;5016201;28;19913;-81
2021/11/28 00:32:05;;;;;;;;;;;;;;;;;;5020523;28;20007;-79
2021/11/28 00:34:30;;;;;;;;;;;;;;;;;;5014453;28;19914;-79
2021/11/28 00:36:56;;;;;;;;;;;;;;;;;;5019979;28;19942;-80
2021/11/28 00:39:22;;;;;;;;;;;;;;;;;;5020068;28;20283;-79
2021/11/28 00:41:48;;;;;;;;;;;;;;;;;;5012640;28;19972;-80
2021/11/28 00:44:14;;;;;;;;;;;;;;;;;;5019184;28;20264;-79
2021/11/28 00:46:40;;;;;;;;;;;;;;;;;;5017536;28;19921;-80
2021/11/28 00:49:14;;;;;;;;;;;;;;;;;;5016263;28;20055;-79
2021/11/28 00:51:56;;;;;;;;;;;;;;;;;;5026776;28;19913;-82
2021/11/28 00:54:22;;;;;;;;;;;;;;;;;;5020432;28;19917;-80
2021/11/28 00:56:47;;;;;;;;;;;;;;;;;;5025606;28;20051;-79
2021/11/28 00:59:13;;;;;;;;;;;;;;;;;;5014705;28;19947;-79
2021/11/28 01:01:39;;;;;;;;;;;;;;;;;;5020511;28;20381;-79
2021/11/28 01:04:05;;;;;;;;;;;;;;;;;;5016753;28;20056;-79
2021/11/28 01:06:31;;;;;;;;;;;;;;;;;;5017410;28;19917;-79
2021/11/28 01:08:57;;;;;;;;;;;;;;;;;;5022827;28;19944;-80
2021/11/28 01:11:24;;;;;;;;;;;;;;;;;;5025960;28;19917;-80
2021/11/28 01:13:49;;;;;;;;;;;;;;;;;;5017096;28;19959;-79
2021/11/28 01:16:15;;;;;;;;;;;;;;;;;;5013618;28;20354;-79
2021/11/28 01:18:41;;;;;;;;;;;;;;;;;;5021197;28;19914;-79
2021/11/28 01:21:07;;;;;;;;;;;;;;;;;;5020656;28;19937;-79
2021/11/28 01:23:33;;;;;;;;;;;;;;;;;;5018091;28;20001;-80
2021/11/28 01:26:00;;;;;;;;;;;;;;;;;;5020883;28;19919;-79
2021/11/28 01:28:26;;;;;;;;;;;;;;;;;;5021397;28;19940;-81
2021/11/28 01:30:52;;;;;;;;;;;;;;;;;;5011009;28;19914;-79
2021/11/28 01:33:18;;;;;;;;;;;;;;;;;;5020531;28;20628;-80
2021/11/28 01:35:44;;;;;;;;;;;;;;;;;;5020708;28;19963;-81
2021/11/28 01:38:10;;;;;;;;;;;;;;;;;;5023268;28;20331;-79
2021/11/28 01:40:36;;;;;;;;;;;;;;;;;;5012196;28;19909;-79
2021/11/28 01:43:01;;;;;;;;;;;;;;;;;;5017864;28;19964;-80
2021/11/28 01:45:27;;;;;;;;;;;;;;;;;;5019104;28;20308;-79
2021/11/28 01:47:53;;;;;;;;;;;;;;;;;;5017318;28;19913;-79
2021/11/28 01:50:19;;;;;;;;;;;;;;;;;;5015634;28;20715;-80
2021/11/28 01:52:45;;;;;;;;;;;;;;;;;;5017007;28;19972;-79
2021/11/28 01:55:11;;;;;;;;;;;;;;;;;;5023619;28;19928;-79
2021/11/28 01:57:37;;;;;;;;;;;;;;;;;;5019699;28;20265;-81
2021/11/28 02:00:03;;;;;;;;;;;;;;;;;;5020557;28;19917;-79
2021/11/28 02:02:31;;;;;;;;;;;;;;;;;;5023569;28;19917;-80
2021/11/28 02:04:57;;;;;;;;;;;;;;;;;;5022702;28;19921;-80
2021/11/28 02:07:23;;;;;;;;;;;;;;;;;;5018354;28;20020;-80
2021/11/28 02:09:49;;;;;;;;;;;;;;;;;;5021702;28;20408;-79
2021/11/28 02:12:15;;;;;;;;;;;;;;;;;;5024497;28;19943;-80
2021/11/28 02:14:41;;;;;;;;;;;;;;;;;;5018215;28;19936;-79
2021/11/28 02:17:07;;;;;;;;;;;;;;;;;;5021658;28;19913;-79
2021/11/28 02:19:34;;;;;;;;;;;;;;;;;;5025911;28;20430;-80
2021/11/28 02:22:00;;;;;;;;;;;;;;;;;;5019716;28;19914;-79
2021/11/28 02:24:26;;;;;;;;;;;;;;;;;;5022073;28;19924;-79
2021/11/28 02:26:52;;;;;;;;;;;;;;;;;;5020748;28;20278;-79
2021/11/28 02:29:17;;;;;;;;;;;;;;;;;;5024744;28;19917;-80
2021/11/28 02:31:43;;;;;;;;;;;;;;;;;;5022686;28;20409;-79
2021/11/28 02:34:09;;;;;;;;;;;;;;;;;;5022444;28;19913;-79
2021/11/28 02:36:35;;;;;;;;;;;;;;;;;;5014757;28;19928;-79
2021/11/28 02:39:01;;;;;;;;;;;;;;;;;;5015546;28;19936;-80
2021/11/28 02:41:27;;;;;;;;;;;;;;;;;;5023213;28;19913;-79
2021/11/28 02:43:54;;;;;;;;;;;;;;;;;;5019833;28;20373;-79
2021/11/28 02:46:20;;;;;;;;;;;;;;;;;;5016682;28;19961;-79
2021/11/28 02:48:46;;;;;;;;;;;;;;;;;;5023165;28;19916;-80
2021/11/28 02:51:12;;;;;;;;;;;;;;;;;;5021618;28;19913;-80
2021/11/28 02:53:38;;;;;;;;;;;;;;;;;;5018505;28;20378;-79
2021/11/28 02:56:05;;;;;;;;;;;;;;;;;;5018408;28;19914;-79
2021/11/28 02:58:30;;;;;;;;;;;;;;;;;;5016744;28;20386;-79
2021/11/28 03:00:56;;;;;;;;;;;;;;;;;;5018101;28;19980;-79
2021/11/28 03:03:22;;;;;;;;;;;;;;;;;;5019447;28;20011;-80
2021/11/28 03:05:48;;;;;;;;;;;;;;;;;;5019703;28;19914;-79
2021/11/28 03:08:14;;;;;;;;;;;;;;;;;;5014135;28;19914;-79
2021/11/28 03:10:40;;;;;;;;;;;;;;;;;;5017908;28;19913;-79
2021/11/28 03:13:06;;;;;;;;;;;;;;;;;;5024670;28;19956;-79
2021/11/28 03:15:32;;;;;;;;;;;;;;;;;;5019696;28;19960;-79
2021/11/28 03:17:59;;;;;;;;;;;;;;;;;;5019276;28;19921;-80
2021/11/28 03:20:25;;;;;;;;;;;;;;;;;;5019441;28;20281;-80
2021/11/28 03:22:51;;;;;;;;;;;;;;;;;;5025353;28;19921;-79
2021/11/28 03:25:17;;;;;;;;;;;;;;;;;;5017638;28;20063;-79
2021/11/28 03:27:44;;;;;;;;;;;;;;;;;;5017987;28;19924;-79
2021/11/28 03:30:09;;;;;;;;;;;;;;;;;;5018977;28;20277;-79
2021/11/28 03:32:36;;;;;;;;;;;;;;;;;;5015451;28;19928;-80
2021/11/28 03:35:02;;;;;;;;;;;;;;;;;;5021541;28;19913;-80
2021/11/28 03:37:28;;;;;;;;;;;;;;;;;;5023043;28;19968;-79
2021/11/28 03:39:54;;;;;;;;;;;;;;;;;;5017596;28;20346;-79
2021/11/28 03:42:20;;;;;;;;;;;;;;;;;;5020071;28;20389;-80
2021/11/28 03:44:46;;;;;;;;;;;;;;;;;;5021806;28;19932;-79
2021/11/28 03:47:12;;;;;;;;;;;;;;;;;;5019829;28;19992;-80
2021/11/28 03:49:38;;;;;;;;;;;;;;;;;;5022493;28;19917;-80
2021/11/28 03:52:03;;;;;;;;;;;;;;;;;;5021889;28;20429;-79
2021/11/28 03:54:29;;;;;;;;;;;;;;;;;;5019697;28;19922;-82
2021/11/28 03:56:55;;;;;;;;;;;;;;;;;;5018190;28;19913;-82
2021/11/28 03:59:21;;;;;;;;;;;;;;;;;;5023164;28;20449;-82
2021/11/28 04:01:48;;;;;;;;;;;;;;;;;;5021654;28;19921;-82
2021/11/28 04:04:14;;;;;;;;;;;;;;;;;;5018768;28;19922;-82
2021/11/28 04:06:41;;;;;;;;;;;;;;;;;;5018677;28;19944;-82
2021/11/28 04:09:07;;;;;;;;;;;;;;;;;;5021247;28;19967;-82
2021/11/28 04:11:33;;;;;;;;;;;;;;;;;;5024537;28;20362;-82
2021/11/28 04:13:59;;;;;;;;;;;;;;;;;;5018904;28;19921;-82
2021/11/28 04:16:25;;;;;;;;;;;;;;;;;;5026245;28;19916;-82
2021/11/28 04:18:50;;;;;;;;;;;;;;;;;;5020267;28;19985;-82
2021/11/28 04:21:16;;;;;;;;;;;;;;;;;;5020364;28;19936;-82
2021/11/28 04:23:42;;;;;;;;;;;;;;;;;;5021818;28;19929;-82
2021/11/28 04:26:08;;;;;;;;;;;;;;;;;;5022124;28;19926;-82
2021/11/28 04:28:34;;;;;;;;;;;;;;;;;;5019397;28;19928;-82
2021/11/28 04:31:00;;;;;;;;;;;;;;;;;;5020293;28;19917;-82
2021/11/28 04:33:26;;;;;;;;;;;;;;;;;;5017767;28;19944;-82
2021/11/28 04:35:52;;;;;;;;;;;;;;;;;;5023394;28;20392;-82
2021/11/28 04:38:17;;;;;;;;;;;;;;;;;;5027261;28;19917;-82
2021/11/28 04:40:43;;;;;;;;;;;;;;;;;;5021655;28;19936;-82
2021/11/28 04:43:09;;;;;;;;;;;;;;;;;;5020085;28;19955;-82
2021/11/28 04:45:35;;;;;;;;;;;;;;;;;;5021581;28;19924;-82
2021/11/28 04:48:01;;;;;;;;;;;;;;;;;;5019397;28;19914;-82
2021/11/28 04:50:27;;;;;;;;;;;;;;;;;;5017846;28;19924;-82
2021/11/28 04:52:53;;;;;;;;;;;;;;;;;;5016692;28;20508;-82
2021/11/28 04:55:19;;;;;;;;;;;;;;;;;;5019498;28;19913;-82
2021/11/28 04:57:45;;;;;;;;;;;;;;;;;;5020402;28;20286;-82
2021/11/28 05:00:10;;;;;;;;;;;;;;;;;;5020990;28;20218;-81
2021/11/28 05:02:37;;;;;;;;;;;;;;;;;;5013965;28;20461;-82
2021/11/28 05:05:03;;;;;;;;;;;;;;;;;;5021088;28;19953;-82
2021/11/28 05:07:29;;;;;;;;;;;;;;;;;;5014426;28;20035;-82
2021/11/28 05:09:55;;;;;;;;;;;;;;;;;;5012334;28;19944;-82
2021/11/28 05:12:21;;;;;;;;;;;;;;;;;;5006992;28;19917;-81
2021/11/28 05:14:46;;;;;;;;;;;;;;;;;;5011105;28;19972;-82
2021/11/28 05:17:12;;;;;;;;;;;;;;;;;;5009403;28;19913;-81
2021/11/28 05:19:38;;;;;;;;;;;;;;;;;;5015139;28;19936;-82
2021/11/28 05:22:04;;;;;;;;;;;;;;;;;;5008096;28;19941;-82
2021/11/28 05:24:30;;;;;;;;;;;;;;;;;;5010634;28;19921;-82
2021/11/28 05:26:56;;;;;;;;;;;;;;;;;;5017027;28;19988;-82
2021/11/28 05:29:23;;;;;;;;;;;;;;;;;;5009980;28;19952;-82
2021/11/28 05:31:49;;;;;;;;;;;;;;;;;;5011610;28;19918;-82
2021/11/28 05:34:15;;;;;;;;;;;;;;;;;;5017113;28;20198;-81
2021/11/28 05:36:41;;;;;;;;;;;;;;;;;;5021962;28;19999;-82
2021/11/28 05:39:06;;;;;;;;;;;;;;;;;;5022001;28;19921;-82
2021/11/28 05:41:32;;;;;;;;;;;;;;;;;;5022670;28;20007;-82
2021/11/28 05:43:58;;;;;;;;;;;;;;;;;;5018022;28;19921;-82
2021/11/28 05:46:24;;;;;;;;;;;;;;;;;;5018111;28;19913;-81
2021/11/28 05:48:50;;;;;;;;;;;;;;;;;;5015216;28;19913;-82
2021/11/28 05:51:16;;;;;;;;;;;;;;;;;;5016331;28;20352;-81
2021/11/28 05:53:42;;;;;;;;;;;;;;;;;;5014135;28;19922;-82
2021/11/28 05:56:08;;;;;;;;;;;;;;;;;;5015266;28;19917;-82
2021/11/28 05:58:34;;;;;;;;;;;;;;;;;;5012769;28;20365;-81
2021/11/28 06:01:00;;;;;;;;;;;;;;;;;;5014248;28;19928;-82
2021/11/28 06:03:25;;;;;;;;;;;;;;;;;;5013383;28;19921;-81
2021/11/28 06:05:51;;;;;;;;;;;;;;;;;;5017300;28;20656;-82
2021/11/28 06:08:17;;;;;;;;;;;;;;;;;;5012837;28;19921;-82
2021/11/28 06:10:43;;;;;;;;;;;;;;;;;;5012483;28;19913;-81
2021/11/28 06:13:09;;;;;;;;;;;;;;;;;;5018286;28;20570;-82
2021/11/28 06:15:35;;;;;;;;;;;;;;;;;;5006630;28;20190;-81
2021/11/28 06:18:01;;;;;;;;;;;;;;;;;;5013123;28;19928;-82
2021/11/28 06:20:27;;;;;;;;;;;;;;;;;;5020131;28;19913;-81
2021/11/28 06:22:52;;;;;;;;;;;;;;;;;;5014205;28;20453;-81
2021/11/28 06:25:18;;;;;;;;;;;;;;;;;;5016030;28;19963;-81
2021/11/28 06:27:45;;;;;;;;;;;;;;;;;;5010403;28;20363;-82
2021/11/28 06:30:11;;;;;;;;;;;;;;;;;;5016026;28;19936;-81
2021/11/28 06:32:37;;;;;;;;;;;;;;;;;;5011298;28;19967;-81
2021/11/28 06:35:02;;;;;;;;;;;;;;;;;;5015118;28;19964;-81
2021/11/28 06:37:28;;;;;;;;;;;;;;;;;;5016039;28;19936;-81
2021/11/28 06:39:54;;;;;;;;;;;;;;;;;;5020352;28;19913;-81
2021/11/28 06:42:20;;;;;;;;;;;;;;;;;;5014285;28;19921;-81
2021/11/28 06:44:46;;;;;;;;;;;;;;;;;;5017643;28;20362;-81
2021/11/28 06:47:13;;;;;;;;;;;;;;;;;;5016641;28;19925;-81
2021/11/28 06:49:39;;;;;;;;;;;;;;;;;;5014041;28;20054;-81
2021/11/28 06:52:05;;;;;;;;;;;;;;;;;;5009973;28;19914;-81
2021/11/28 06:54:31;;;;;;;;;;;;;;;;;;5007606;28;20425;-80
2021/11/28 06:56:56;;;;;;;;;;;;;;;;;;5011890;28;19913;-81
2021/11/28 06:59:23;;;;;;;;;;;;;;;;;;5011902;28;20177;-80
2021/11/28 07:01:48;;;;;;;;;;;;;;;;;;5012950;28;19917;-80
2021/11/28 07:04:14;;;;;;;;;;;;;;;;;;5011711;28;19917;-81
2021/11/28 07:06:40;;;;;;;;;;;;;;;;;;5014808;28;20277;-81
2021/11/28 07:09:06;;;;;;;;;;;;;;;;;;5015533;28;19913;-80
2021/11/28 07:11:32;;;;;;;;;;;;;;;;;;5011996;28;19992;-81
2021/11/28 07:13:58;;;;;;;;;;;;;;;;;;5009079;28;19967;-81
2021/11/28 07:16:24;;;;;;;;;;;;;;;;;;5012960;28;19992;-80
2021/11/28 07:18:50;;;;;;;;;;;;;;;;;;5013576;28;19928;-80
2021/11/28 07:21:16;;;;;;;;;;;;;;;;;;5015726;28;20477;-81
2021/11/28 07:23:42;;;;;;;;;;;;;;;;;;5011748;28;20004;-81
2021/11/28 07:26:08;;;;;;;;;;;;;;;;;;5013230;28;19987;-81
2021/11/28 07:28:33;;;;;;;;;;;;;;;;;;5014074;28;19913;-80
2021/11/28 07:30:59;;;;;;;;;;;;;;;;;;5014267;28;19928;-80
2021/11/28 07:33:25;;;;;;;;;;;;;;;;;;5010357;28;20558;-81
2021/11/28 07:35:51;;;;;;;;;;;;;;;;;;5020673;28;19974;-81
2021/11/28 07:38:17;;;;;;;;;;;;;;;;;;5018905;28;20438;-80
2021/11/28 07:40:43;;;;;;;;;;;;;;;;;;5011781;28;20400;-80
2021/11/28 07:43:10;;;;;;;;;;;;;;;;;;5009008;28;20003;-81
2021/11/28 07:45:36;;;;;;;;;;;;;;;;;;5006988;28;19972;-80
2021/11/28 07:48:02;;;;;;;;;;;;;;;;;;5007437;28;19965;-80
2021/11/28 07:50:28;;;;;;;;;;;;;;;;;;5011206;28;20416;-80
2021/11/28 07:52:54;;;;;;;;;;;;;;;;;;5011980;28;19913;-80
2021/11/28 07:55:19;;;;;;;;;;;;;;;;;;5015117;28;19914;-80
2021/11/28 07:57:46;;;;;;;;;;;;;;;;;;5011857;28;19917;-80
2021/11/28 08:00:12;;;;;;;;;;;;;;;;;;5011711;28;19913;-80
2021/11/28 08:02:38;;;;;;;;;;;;;;;;;;5009933;28;19928;-80
2021/11/28 08:05:05;;;;;;;;;;;;;;;;;;5012336;28;19920;-80
2021/11/28 08:07:31;;;;;;;;;;;;;;;;;;5014883;28;19940;-81
2021/11/28 08:09:57;;;;;;;;;;;;;;;;;;5006971;28;19918;-80
2021/11/28 08:12:23;;;;;;;;;;;;;;;;;;5013718;28;20084;-80
2021/11/28 08:14:49;;;;;;;;;;;;;;;;;;5008970;28;19962;-81
2021/11/28 08:17:15;;;;;;;;;;;;;;;;;;5010823;28;20482;-81
2021/11/28 08:19:41;;;;;;;;;;;;;;;;;;5012418;28;19920;-80
2021/11/28 08:22:07;;;;;;;;;;;;;;;;;;5015562;28;20408;-80
2021/11/28 08:24:33;;;;;;;;;;;;;;;;;;5012628;28;19917;-81
2021/11/28 08:26:59;;;;;;;;;;;;;;;;;;5013403;28;20047;-81
2021/11/28 08:29:25;;;;;;;;;;;;;;;;;;5010407;28;19920;-81
2021/11/28 08:31:51;;;;;;;;;;;;;;;;;;5017800;28;19917;-80
2021/11/28 08:34:16;;;;;;;;;;;;;;;;;;5006744;28;19975;-81
2021/11/28 08:36:42;;;;;;;;;;;;;;;;;;5009049;28;19952;-81
2021/11/28 08:39:08;;;;;;;;;;;;;;;;;;5015120;28;20077;-81
2021/11/28 08:41:34;;;;;;;;;;;;;;;;;;5010537;28;19913;-81
2021/11/28 08:44:00;;;;;;;;;;;;;;;;;;5017305;28;20015;-81
2021/11/28 08:46:26;;;;;;;;;;;;;;;;;;5008283;28;19921;-82
2021/11/28 08:48:53;;;;;;;;;;;;;;;;;;5012211;28;19919;-81
2021/11/28 08:51:20;;;;;;;;;;;;;;;;;;5006933;28;20137;-81
2021/11/28 08:53:46;;;;;;;;;;;;;;;;;;5013916;28;20037;-81
2021/11/28 08:56:12;;;;;;;;;;;;;;;;;;5022073;28;19952;-81
2021/11/28 08:58:38;;;;;;;;;;;;;;;;;;5016811;28;20395;-81
2021/11/28 09:01:04;;;;;;;;;;;;;;;;;;5014964;28;19920;-81
2021/11/28 09:03:30;;;;;;;;;;;;;;;;;;5014448;28;19968;-81
2021/11/28 09:05:56;;;;;;;;;;;;;;;;;;5010694;28;19918;-81
2021/11/28 09:08:22;;;;;;;;;;;;;;;;;;5018176;28;19924;-81
2021/11/28 09:10:48;;;;;;;;;;;;;;;;;;5020168;28;20012;-81
2021/11/28 09:13:14;;;;;;;;;;;;;;;;;;5017779;28;19952;-81
2021/11/28 09:15:40;;;;;;;;;;;;;;;;;;5011979;28;20445;-81
2021/11/28 09:18:14;;;;;;;;;;;;;;;;;;5018331;28;19920;-82
2021/11/28 09:20:44;;;;;;;;;;;;;;;;;;5013374;28;20390;-81
2021/11/28 09:25:36;;;;;;;;;;;;;;;;;;5018773;28;19924;-81
2021/11/28 09:28:02;;;;;;;;;;;;;;;;;;5016527;28;19913;-82
2021/11/28 09:30:28;;;;;;;;;;;;;;;;;;5022642;28;20321;-82
2021/11/28 09:32:54;;;;;;;;;;;;;;;;;;5018220;28;19913;-81
2021/11/28 09:35:20;;;;;;;;;;;;;;;;;;5025041;28;19919;-82
2021/11/28 09:37:46;;;;;;;;;;;;;;;;;;5028186;28;19913;-82
2021/11/28 09:40:12;;;;;;;;;;;;;;;;;;5021778;28;19924;-82
2021/11/28 09:42:38;;;;;;;;;;;;;;;;;;5020386;28;19990;-81
2021/11/28 09:45:03;;;;;;;;;;;;;;;;;;5021012;28;19979;-82
2021/11/28 09:47:29;;;;;;;;;;;;;;;;;;5011479;28;19924;-82
2021/11/28 09:49:55;;;;;;;;;;;;;;;;;;5023994;28;19950;-82
2021/11/28 09:52:23;;;;;;;;;;;;;;;;;;5016264;28;20428;-83
2021/11/28 09:54:49;;;;;;;;;;;;;;;;;;5011204;28;20039;-82
2021/11/28 09:57:15;;;;;;;;;;;;;;;;;;5014652;28;20510;-83
2021/11/28 09:59:41;;;;;;;;;;;;;;;;;;5014925;28;20353;-82
2021/11/28 10:02:07;;;;;;;;;;;;;;;;;;5011283;28;20420;-84
2021/11/28 10:04:33;;;;;;;;;;;;;;;;;;5015153;28;19913;-81
2021/11/28 10:06:59;;;;;;;;;;;;;;;;;;5021405;28;19921;-81
2021/11/28 10:09:25;;;;;;;;;;;;;;;;;;5018328;28;19925;-82
2021/11/28 10:11:52;;;;;;;;;;;;;;;;;;5016091;28;19914;-82
2021/11/28 10:14:19;;;;;;;;;;;;;;;;;;5012501;28;20470;-83
2021/11/28 10:16:44;;;;;;;;;;;;;;;;;;5016519;28;19918;-81
2021/11/28 10:19:10;;;;;;;;;;;;;;;;;;5011423;28;19924;-82
2021/11/28 10:21:36;;;;;;;;;;;;;;;;;;5028529;28;19924;-82
2021/11/28 10:24:02;;;;;;;;;;;;;;;;;;5019445;28;19917;-82
2021/11/28 10:26:28;;;;;;;;;;;;;;;;;;5019080;28;20315;-83
2021/11/28 10:28:54;;;;;;;;;;;;;;;;;;5021160;28;19917;-82
2021/11/28 10:31:20;;;;;;;;;;;;;;;;;;5024724;28;19999;-82
2021/11/28 10:33:46;;;;;;;;;;;;;;;;;;5016716;28;19953;-84
2021/11/28 10:36:12;;;;;;;;;;;;;;;;;;5017651;28;19913;-84
2021/11/28 10:38:38;;;;;;;;;;;;;;;;;;5018318;28;20579;-86
2021/11/28 10:41:04;;;;;;;;;;;;;;;;;;5020842;28;20039;-83
2021/11/28 10:43:32;;;;;;;;;;;;;;;;;;5015211;28;19917;-82
2021/11/28 10:45:58;;;;;;;;;;;;;;;;;;5019451;28;20241;-83
2021/11/28 10:48:24;;;;;;;;;;;;;;;;;;5019912;28;19918;-84
2021/11/28 10:50:50;;;;;;;;;;;;;;;;;;5012011;28;19940;-83
2021/11/28 10:53:16;;;;;;;;;;;;;;;;;;5011839;28;19914;-82
2021/11/28 10:55:42;;;;;;;;;;;;;;;;;;5021150;28;19913;-83
2021/11/28 10:58:09;;;;;;;;;;;;;;;;;;5030606;28;19940;-83
2021/11/28 11:00:34;;;;;;;;;;;;;;;;;;5026483;28;20214;-84
2021/11/28 11:03:02;;;;;;;;;;;;;;;;;;5017899;28;20016;-84
2021/11/28 11:05:29;;;;;;;;;;;;;;;;;;5026787;28;20232;-83
2021/11/28 11:07:55;;;;;;;;;;;;;;;;;;5013758;28;19956;-82
2021/11/28 11:10:21;;;;;;;;;;;;;;;;;;5024520;28;19914;-84
2021/11/28 11:12:47;;;;;;;;;;;;;;;;;;5026417;28;19941;-82
2021/11/28 11:15:16;;;;;;;;;;;;;;;;;;5017661;28;19919;-83
2021/11/28 11:17:42;;;;;;;;;;;;;;;;;;5013579;28;19918;-85
2021/11/28 11:20:08;;;;;;;;;;;;;;;;;;5010751;28;20429;-84
2021/11/28 11:22:37;;;;;;;;;;;;;;;;;;5009940;28;20012;-84
2021/11/28 11:25:03;;;;;;;;;;;;;;;;;;5025374;28;19955;-83
2021/11/28 11:27:30;;;;;;;;;;;;;;;;;;5021000;28;20472;-86
2021/11/28 11:29:56;;;;;;;;;;;;;;;;;;5019589;28;20015;-83
2021/11/28 11:32:22;;;;;;;;;;;;;;;;;;5015998;28;19917;-85
2021/11/28 11:34:48;;;;;;;;;;;;;;;;;;5018715;28;19917;-83
2021/11/28 11:37:16;;;;;;;;;;;;;;;;;;5017737;28;20125;-80
2021/11/28 11:39:42;;;;;;;;;;;;;;;;;;5034291;28;19955;-80
2021/11/28 11:42:08;;;;;;;;;;;;;;;;;;5022557;28;19917;-85
2021/11/28 11:44:34;;;;;;;;;;;;;;;;;;5011483;28;19913;-83
2021/11/28 11:47:00;;;;;;;;;;;;;;;;;;5021936;28;19913;-86
2021/11/28 11:49:27;;;;;;;;;;;;;;;;;;5025922;28;19913;-81
2021/11/28 11:51:53;;;;;;;;;;;;;;;;;;5015549;28;20398;-83
2021/11/28 11:54:19;;;;;;;;;;;;;;;;;;5014375;28;20142;-83
2021/11/28 11:56:46;;;;;;;;;;;;;;;;;;5017781;28;19949;-85
2021/11/28 11:59:12;;;;;;;;;;;;;;;;;;5015620;28;20083;-81
2021/11/28 12:01:39;;;;;;;;;;;;;;;;;;5015393;28;20009;-81
2021/11/28 12:04:05;;;;;;;;;;;;;;;;;;5019083;28;20637;-85
2021/11/28 12:06:31;;;;;;;;;;;;;;;;;;5008896;28;19933;-82
2021/11/28 12:08:57;;;;;;;;;;;;;;;;;;5022731;28;20073;-82
2021/11/28 12:11:23;;;;;;;;;;;;;;;;;;5028392;28;19994;-82
2021/11/28 12:13:48;;;;;;;;;;;;;;;;;;5022424;28;19951;-82
2021/11/28 12:16:14;;;;;;;;;;;;;;;;;;5018347;28;19920;-82
2021/11/28 12:18:44;;;;;;;;;;;;;;;;;;5012517;28;20281;-85
2021/11/28 12:21:10;;;;;;;;;;;;;;;;;;5014275;28;19955;-84
2021/11/28 12:23:36;;;;;;;;;;;;;;;;;;5017813;28;19956;-82
2021/11/28 12:26:02;;;;;;;;;;;;;;;;;;5019099;28;19920;-85
2021/11/28 12:28:27;;;;;;;;;;;;;;;;;;5018192;28;19921;-84
2021/11/28 12:30:53;;;;;;;;;;;;;;;;;;5009034;28;20359;-80
2021/11/28 12:33:19;;;;;;;;;;;;;;;;;;5020840;28;20361;-80
2021/11/28 12:35:45;;;;;;;;;;;;;;;;;;5015096;28;19917;-82
2021/11/28 12:38:11;;;;;;;;;;;;;;;;;;5016337;28;19917;-84
2021/11/28 12:40:38;;;;;;;;;;;;;;;;;;5012463;28;20867;-81
2021/11/28 12:43:04;;;;;;;;;;;;;;;;;;5017973;28;20430;-81
2021/11/28 12:45:30;;;;;;;;;;;;;;;;;;5018448;28;19914;-80
2021/11/28 12:47:56;;;;;;;;;;;;;;;;;;5014037;28;20770;-80
2021/11/28 12:50:22;;;;;;;;;;;;;;;;;;5016403;28;19917;-80
2021/11/28 12:52:48;;;;;;;;;;;;;;;;;;5021120;28;20485;-81
2021/11/28 12:55:14;;;;;;;;;;;;;;;;;;5011122;28;20143;-80
2021/11/28 12:57:40;;;;;;;;;;;;;;;;;;5010795;28;20019;-81
2021/11/28 13:00:06;;;;;;;;;;;;;;;;;;5012258;28;19914;-80
2021/11/28 13:02:32;;;;;;;;;;;;;;;;;;5007071;28;19917;-80
2021/11/28 13:04:58;;;;;;;;;;;;;;;;;;5008939;28;19921;-80
2021/11/28 13:07:24;;;;;;;;;;;;;;;;;;5012839;28;20441;-80
2021/11/28 13:09:50;;;;;;;;;;;;;;;;;;5014747;28;19913;-80
2021/11/28 13:12:16;;;;;;;;;;;;;;;;;;5010589;28;21331;-81
2021/11/28 13:14:41;;;;;;;;;;;;;;;;;;5011747;28;20632;-80
2021/11/28 13:17:07;;;;;;;;;;;;;;;;;;5027738;28;19917;-81
2021/11/28 13:19:33;;;;;;;;;;;;;;;;;;5027765;28;19924;-80
2021/11/28 13:21:59;;;;;;;;;;;;;;;;;;5021124;28;19917;-80
2021/11/28 13:24:25;;;;;;;;;;;;;;;;;;5014985;28;19924;-81
2021/11/28 13:26:51;;;;;;;;;;;;;;;;;;5018153;28;20336;-80
2021/11/28 13:29:17;;;;;;;;;;;;;;;;;;5017564;28;19921;-82
2021/11/28 13:31:43;;;;;;;;;;;;;;;;;;5014887;28;19913;-81
2021/11/28 13:34:09;;;;;;;;;;;;;;;;;;5022523;28;19920;-80
2021/11/28 13:36:35;;;;;;;;;;;;;;;;;;5017162;28;19956;-80
2021/11/28 13:39:03;;;;;;;;;;;;;;;;;;5010486;28;19917;-81
2021/11/28 13:41:29;;;;;;;;;;;;;;;;;;5016026;28;20087;-80
2021/11/28 13:43:55;;;;;;;;;;;;;;;;;;5008275;28;20336;-80
2021/11/28 13:46:21;;;;;;;;;;;;;;;;;;5015057;28;19940;-79
2021/11/28 13:48:47;;;;;;;;;;;;;;;;;;5012352;28;19921;-80
2021/11/28 13:51:13;;;;;;;;;;;;;;;;;;5011822;28;20012;-80
2021/11/28 13:53:39;;;;;;;;;;;;;;;;;;5013767;28;19913;-80
2021/11/28 13:56:05;;;;;;;;;;;;;;;;;;5022388;28;19917;-80
2021/11/28 13:58:31;;;;;;;;;;;;;;;;;;5018206;28;20358;-80
2021/11/28 14:00:56;;;;;;;;;;;;;;;;;;5010688;28;19913;-80
2021/11/28 14:03:22;;;;;;;;;;;;;;;;;;5026794;28;20369;-80
2021/11/28 14:05:48;;;;;;;;;;;;;;;;;;5013710;28;19964;-80
2021/11/28 14:08:14;;;;;;;;;;;;;;;;;;5020275;28;19913;-80
2021/11/28 14:10:40;;;;;;;;;;;;;;;;;;5029863;28;20420;-79
2021/11/28 14:13:07;;;;;;;;;;;;;;;;;;5018272;28;19913;-80
2021/11/28 14:15:33;;;;;;;;;;;;;;;;;;5010290;28;19945;-81
2021/11/28 14:17:59;;;;;;;;;;;;;;;;;;5018063;28;19940;-80
2021/11/28 14:20:25;;;;;;;;;;;;;;;;;;5017577;28;20428;-80
2021/11/28 14:22:50;;;;;;;;;;;;;;;;;;5020616;28;19917;-80
2021/11/28 14:25:16;;;;;;;;;;;;;;;;;;5017859;28;20408;-80
2021/11/28 14:27:42;;;;;;;;;;;;;;;;;;5017162;28;19964;-80
2021/11/28 14:30:08;;;;;;;;;;;;;;;;;;5013144;28;20283;-80
2021/11/28 14:32:34;;;;;;;;;;;;;;;;;;5024458;28;19971;-81
2021/11/28 14:35:00;;;;;;;;;;;;;;;;;;5022344;28;20357;-81
2021/11/28 14:37:26;;;;;;;;;;;;;;;;;;5022081;28;19940;-81
2021/11/28 14:39:52;;;;;;;;;;;;;;;;;;5020205;28;19914;-80
2021/11/28 14:42:17;;;;;;;;;;;;;;;;;;5023420;28;20448;-81
2021/11/28 14:44:43;;;;;;;;;;;;;;;;;;5019396;28;19917;-80
2021/11/28 14:47:09;;;;;;;;;;;;;;;;;;5016779;28;19919;-80
2021/11/28 14:49:35;;;;;;;;;;;;;;;;;;5016463;28;20545;-81
2021/11/28 14:52:02;;;;;;;;;;;;;;;;;;5025703;28;20014;-81
2021/11/28 14:54:27;;;;;;;;;;;;;;;;;;5016271;28;20723;-81
2021/11/28 14:56:53;;;;;;;;;;;;;;;;;;5022202;28;19921;-81
2021/11/28 14:59:23;;;;;;;;;;;;;;;;;;5013783;28;19947;-81
2021/11/28 15:01:49;;;;;;;;;;;;;;;;;;5014657;28;19980;-81
2021/11/28 15:04:15;;;;;;;;;;;;;;;;;;5012554;28;19917;-80
2021/11/28 15:06:41;;;;;;;;;;;;;;;;;;5012630;28;20313;-81
2021/11/28 15:09:07;;;;;;;;;;;;;;;;;;5015067;28;19975;-81
2021/11/28 15:11:33;;;;;;;;;;;;;;;;;;5016121;28;19920;-81
2021/11/28 15:13:59;;;;;;;;;;;;;;;;;;5018449;28;19963;-81
2021/11/28 15:16:26;;;;;;;;;;;;;;;;;;5025359;28;19913;-80
2021/11/28 15:18:52;;;;;;;;;;;;;;;;;;5018165;28;20370;-81
2021/11/28 15:21:18;;;;;;;;;;;;;;;;;;5020245;28;19971;-81
2021/11/28 15:23:44;;;;;;;;;;;;;;;;;;5020583;28;19917;-81
2021/11/28 15:26:10;;;;;;;;;;;;;;;;;;5022739;28;19913;-81
2021/11/28 15:28:36;;;;;;;;;;;;;;;;;;5024135;28;19913;-81
2021/11/28 15:31:02;;;;;;;;;;;;;;;;;;5024733;28;20381;-80
2021/11/28 15:33:28;;;;;;;;;;;;;;;;;;5025142;28;19920;-81
2021/11/28 15:35:53;;;;;;;;;;;;;;;;;;5025133;28;19921;-81
2021/11/28 15:38:19;;;;;;;;;;;;;;;;;;5020135;28;20579;-81
2021/11/28 15:40:45;;;;;;;;;;;;;;;;;;5008404;28;19909;-81
2021/11/28 15:43:12;;;;;;;;;;;;;;;;;;5014549;28;19917;-80
2021/11/28 15:45:38;;;;;;;;;;;;;;;;;;5013415;28;19963;-81
2021/11/28 15:48:04;;;;;;;;;;;;;;;;;;5017457;28;19949;-81
2021/11/28 15:50:30;;;;;;;;;;;;;;;;;;5017481;28;19975;-79
2021/11/28 15:52:56;;;;;;;;;;;;;;;;;;5016977;28;20008;-80
2021/11/28 15:55:22;;;;;;;;;;;;;;;;;;5015721;28;19913;-81
2021/11/28 15:57:48;;;;;;;;;;;;;;;;;;5025118;28;19921;-81
2021/11/28 16:00:14;;;;;;;;;;;;;;;;;;5022172;28;19913;-80
2021/11/28 16:02:39;;;;;;;;;;;;;;;;;;5020247;28;19917;-80
2021/11/28 16:05:05;;;;;;;;;;;;;;;;;;5014404;28;20015;-80
2021/11/28 16:07:31;;;;;;;;;;;;;;;;;;5020999;28;19921;-80
2021/11/28 16:09:57;;;;;;;;;;;;;;;;;;5021586;28;19949;-80
2021/11/28 16:12:23;;;;;;;;;;;;;;;;;;5036616;28;19913;-80
2021/11/28 16:14:49;;;;;;;;;;;;;;;;;;5015637;28;19917;-80
2021/11/28 16:17:15;;;;;;;;;;;;;;;;;;5016909;28;20397;-80
2021/11/28 16:19:41;;;;;;;;;;;;;;;;;;5020094;28;19921;-80
2021/11/28 16:22:07;;;;;;;;;;;;;;;;;;5013169;28;19947;-80
2021/11/28 16:24:32;;;;;;;;;;;;;;;;;;5010770;28;19917;-80
2021/11/28 16:26:58;;;;;;;;;;;;;;;;;;5019023;28;19921;-80
2021/11/28 16:29:24;;;;;;;;;;;;;;;;;;5030842;28;19914;-80
2021/11/28 16:31:50;;;;;;;;;;;;;;;;;;5012521;28;20459;-80
2021/11/28 16:34:16;;;;;;;;;;;;;;;;;;5015559;28;19933;-80
2021/11/28 16:36:42;;;;;;;;;;;;;;;;;;5018838;28;20233;-80
2021/11/28 16:39:08;;;;;;;;;;;;;;;;;;5020628;28;20433;-80
2021/11/28 16:41:34;;;;;;;;;;;;;;;;;;5009223;28;19913;-80
2021/11/28 16:44:01;;;;;;;;;;;;;;;;;;5010377;28;20331;-80
2021/11/28 16:46:27;;;;;;;;;;;;;;;;;;5008277;28;19913;-80